createdAt,value
2023-07-30T00:00:34.364Z,97342.13
2023-07-30T00:03:01.138Z,97328.75
2023-07-30T00:05:27.832Z,97329.97
2023-07-30T00:07:55.105Z,97334.22
2023-07-30T00:10:21.921Z,97320.53
2023-07-30T00:12:48.334Z,97327.09
2023-07-30T00:15:14.886Z,97317.19
2023-07-30T00:17:41.409Z,97313.69
2023-07-30T00:20:09.863Z,97306.59
2023-07-30T00:22:36.510Z,97300.34
2023-07-30T00:25:03.063Z,97241.59
2023-07-30T00:27:29.588Z,97303.88
2023-07-30T00:29:56.815Z,97303.38
2023-07-30T00:32:23.341Z,97304.53
2023-07-30T00:34:50.193Z,97321.22
2023-07-30T00:37:16.699Z,97310.28
2023-07-30T00:39:43.219Z,97314.97
2023-07-30T00:42:09.742Z,97314.25
2023-07-30T00:44:36.208Z,97313.53
2023-07-30T00:47:02.673Z,97320.53
2023-07-30T00:49:29.172Z,97320.44
2023-07-30T00:51:57.564Z,97310.97
2023-07-30T00:54:24.658Z,97317.25
2023-07-30T00:56:52.246Z,97326.66
2023-07-30T00:59:19.016Z,97324.72
2023-07-30T01:01:45.612Z,97322.75
2023-07-30T01:04:12.169Z,97323.50
2023-07-30T01:06:38.661Z,97326.09
2023-07-30T01:09:05.210Z,97338.09
2023-07-30T01:11:31.829Z,97328.63
2023-07-30T01:13:58.517Z,97341.34
2023-07-30T01:16:25.074Z,97340.09
2023-07-30T01:18:52.232Z,97324.06
2023-07-30T01:21:18.800Z,97330.63
2023-07-30T01:23:45.341Z,97337.16
2023-07-30T01:26:13.408Z,97342.28
2023-07-30T01:28:43.103Z,97344.97
2023-07-30T01:31:09.595Z,97345.25
2023-07-30T01:33:36.080Z,97342.88
2023-07-30T01:36:02.579Z,97338.16
2023-07-30T01:38:29.172Z,97341.31
2023-07-30T01:40:55.611Z,97346.91
2023-07-30T01:43:22.120Z,97349.63
2023-07-30T01:45:49.100Z,97348.88
2023-07-30T01:48:15.627Z,97355.16
2023-07-30T01:50:42.187Z,97360.56
2023-07-30T01:53:08.724Z,97356.25
2023-07-30T01:55:35.658Z,97358.47
2023-07-30T01:58:02.245Z,97351.00
2023-07-30T02:00:28.832Z,97358.34
2023-07-30T02:03:03.968Z,97357.06
2023-07-30T02:05:30.580Z,97359.09
2023-07-30T02:07:57.112Z,97354.47
2023-07-30T02:10:24.714Z,97357.63
2023-07-30T02:12:51.238Z,97356.91
2023-07-30T02:15:17.854Z,97358.91
2023-07-30T02:17:44.428Z,97348.00
2023-07-30T02:20:11.095Z,97350.72
2023-07-30T02:22:37.627Z,97351.94
2023-07-30T02:25:04.584Z,97337.78
2023-07-30T02:27:31.100Z,97340.94
2023-07-30T02:29:57.658Z,97341.38
2023-07-30T02:32:24.283Z,97349.13
2023-07-30T02:34:50.824Z,97352.88
2023-07-30T02:37:17.425Z,97359.75
2023-07-30T02:39:43.955Z,97364.66
2023-07-30T02:42:10.457Z,97371.34
2023-07-30T02:44:36.986Z,97369.94
2023-07-30T02:47:03.471Z,97367.28
2023-07-30T02:49:30.051Z,97359.94
2023-07-30T02:51:56.972Z,97366.59
2023-07-30T02:54:23.746Z,97367.03
2023-07-30T02:56:50.328Z,97360.06
2023-07-30T02:59:16.814Z,97361.22
2023-07-30T03:01:43.623Z,97360.78
2023-07-30T03:04:10.196Z,97356.91
2023-07-30T03:06:36.789Z,97357.63
2023-07-30T03:09:03.867Z,97359.13
2023-07-30T03:11:30.449Z,97357.91
2023-07-30T03:13:56.949Z,97362.97
2023-07-30T03:16:23.871Z,97364.56
2023-07-30T03:18:51.579Z,97370.84
2023-07-30T03:21:18.090Z,97372.44
2023-07-30T03:23:45.460Z,97359.56
2023-07-30T03:26:12.398Z,97365.47
2023-07-30T03:28:40.788Z,97367.75
2023-07-30T03:31:07.855Z,97357.63
2023-07-30T03:33:34.801Z,97357.63
2023-07-30T03:36:01.917Z,97361.06
2023-07-30T03:38:28.970Z,97358.34
2023-07-30T03:40:56.655Z,97356.84
2023-07-30T03:43:23.157Z,97372.06
2023-07-30T03:45:49.795Z,97377.53
2023-07-30T03:48:16.655Z,97377.53
2023-07-30T03:50:43.277Z,97374.81
2023-07-30T03:53:09.800Z,97384.03
2023-07-30T03:55:36.322Z,97388.53
2023-07-30T03:58:03.134Z,97394.63
2023-07-30T04:00:30.460Z,97398.16
2023-07-30T04:02:57.268Z,97396.19
2023-07-30T04:05:23.789Z,97396.19
2023-07-30T04:07:50.318Z,97398.56
2023-07-30T04:10:16.946Z,97395.50
2023-07-30T04:12:43.458Z,97410.72
2023-07-30T04:15:10.079Z,97411.88
2023-07-30T04:17:37.612Z,97407.19
2023-07-30T04:20:05.418Z,97399.91
2023-07-30T04:22:32.083Z,97405.09
2023-07-30T04:24:58.583Z,97403.63
2023-07-30T04:27:25.947Z,97412.31
2023-07-30T04:29:54.002Z,97411.59
2023-07-30T04:32:20.508Z,97416.63
2023-07-30T04:34:46.956Z,97419.72
2023-07-30T04:37:13.602Z,97439.22
2023-07-30T04:39:40.241Z,97442.66
2023-07-30T04:42:07.181Z,97440.28
2023-07-30T04:44:33.726Z,97437.50
2023-07-30T04:47:07.291Z,97432.84
2023-07-30T04:49:33.999Z,97428.56
2023-07-30T04:52:02.312Z,97423.19
2023-07-30T04:54:28.822Z,97419.28
2023-07-30T04:56:55.287Z,97426.41
2023-07-30T04:59:21.768Z,97422.53
2023-07-30T05:01:48.501Z,97422.91
2023-07-30T05:04:15.501Z,97431.81
2023-07-30T05:06:42.564Z,97417.34
2023-07-30T05:09:09.833Z,97429.50
2023-07-30T05:11:37.045Z,97431.09
2023-07-30T05:14:04.324Z,97435.31
2023-07-30T05:16:30.920Z,97434.53
2023-07-30T05:18:57.831Z,97435.84
2023-07-30T05:21:25.016Z,97446.69
2023-07-30T05:23:52.037Z,97438.84
2023-07-30T05:26:19.097Z,97440.50
2023-07-30T05:28:45.974Z,97446.03
2023-07-30T05:31:12.650Z,97438.63
2023-07-30T05:33:39.295Z,97439.84
2023-07-30T05:36:07.322Z,97438.41
2023-07-30T05:38:33.830Z,97448.25
2023-07-30T05:41:00.721Z,97441.56
2023-07-30T05:43:27.875Z,97445.16
2023-07-30T05:45:54.830Z,97447.03
2023-07-30T05:48:21.949Z,97456.31
2023-07-30T05:50:48.850Z,97461.78
2023-07-30T05:53:15.982Z,97454.66
2023-07-30T05:55:43.013Z,97452.50
2023-07-30T05:58:10.129Z,97454.00
2023-07-30T06:00:36.892Z,97457.47
2023-07-30T06:03:04.669Z,97456.22
2023-07-30T06:05:31.793Z,97458.56
2023-07-30T06:07:58.869Z,97452.44
2023-07-30T06:10:25.778Z,97453.38
2023-07-30T06:12:52.774Z,97443.78
2023-07-30T06:15:20.012Z,97450.19
2023-07-30T06:17:46.907Z,97447.66
2023-07-30T06:20:13.924Z,97445.34
2023-07-30T06:22:40.530Z,97451.25
2023-07-30T06:25:07.405Z,97458.94
2023-07-30T06:27:34.409Z,97462.38
2023-07-30T06:30:01.580Z,97458.47
2023-07-30T06:32:28.619Z,97457.34
2023-07-30T06:34:55.559Z,97467.66
2023-07-30T06:37:22.238Z,97459.25
2023-07-30T06:39:49.112Z,97450.84
2023-07-30T06:42:15.838Z,97459.97
2023-07-30T06:44:42.740Z,97467.59
2023-07-30T06:47:09.729Z,97472.44
2023-07-30T06:49:36.721Z,97478.06
2023-07-30T06:52:03.433Z,97482.44
2023-07-30T06:54:30.960Z,97479.72
2023-07-30T06:56:57.930Z,97482.50
2023-07-30T06:59:24.916Z,97474.19
2023-07-30T07:01:51.801Z,97484.69
2023-07-30T07:04:18.368Z,97487.19
2023-07-30T07:06:45.178Z,97490.00
2023-07-30T07:09:12.388Z,97488.56
2023-07-30T07:11:39.432Z,97490.22
2023-07-30T07:14:06.455Z,97496.53
2023-07-30T07:16:33.575Z,97501.63
2023-07-30T07:19:00.541Z,97497.47
2023-07-30T07:21:27.879Z,97501.13
2023-07-30T07:23:54.877Z,97499.97
2023-07-30T07:26:21.501Z,97510.75
2023-07-30T07:28:48.296Z,97520.63
2023-07-30T07:31:15.227Z,97472.38
2023-07-30T07:33:42.272Z,97528.59
2023-07-30T07:36:09.345Z,97532.06
2023-07-30T07:38:36.323Z,97539.94
2023-07-30T07:41:03.378Z,97535.13
2023-07-30T07:43:30.274Z,97531.31
2023-07-30T07:45:57.403Z,97546.66
2023-07-30T07:48:24.821Z,97543.50
2023-07-30T07:50:51.943Z,97542.59
2023-07-30T07:53:18.817Z,97546.75
2023-07-30T07:55:45.331Z,97542.72
2023-07-30T07:58:12.189Z,97535.13
2023-07-30T08:00:39.260Z,97536.34
2023-07-30T08:03:06.032Z,97523.06
2023-07-30T08:05:32.845Z,97524.97
2023-07-30T08:07:59.480Z,97519.88
2023-07-30T08:10:26.344Z,97534.00
2023-07-30T08:12:53.711Z,97523.97
2023-07-30T08:15:20.516Z,97529.16
2023-07-30T08:17:47.678Z,97540.56
2023-07-30T08:20:14.662Z,97545.53
2023-07-30T08:22:41.360Z,97553.16
2023-07-30T08:25:08.400Z,97546.25
2023-07-30T08:27:35.160Z,97530.16
2023-07-30T08:30:02.119Z,97528.13
2023-07-30T08:32:29.096Z,97533.44
2023-07-30T08:34:55.919Z,97540.94
2023-07-30T08:37:22.800Z,97534.25
2023-07-30T08:39:50.523Z,97534.56
2023-07-30T08:42:17.841Z,97525.44
2023-07-30T08:44:45.096Z,97515.84
2023-07-30T08:47:12.091Z,97518.53
2023-07-30T08:49:38.858Z,97513.78
2023-07-30T08:52:05.864Z,97517.69
2023-07-30T08:54:32.897Z,97518.09
2023-07-30T08:56:59.770Z,97527.41
2023-07-30T08:59:26.668Z,97522.06
2023-07-30T09:01:53.655Z,97527.50
2023-07-30T09:04:20.661Z,97531.63
2023-07-30T09:06:53.601Z,97541.50
2023-07-30T09:09:20.920Z,97532.44
2023-07-30T09:11:56.865Z,97536.44
2023-07-30T09:14:23.460Z,97542.59
2023-07-30T09:16:52.473Z,97534.16
2023-07-30T09:19:19.341Z,97534.16
2023-07-30T09:21:46.428Z,97528.41
2023-07-30T09:24:13.219Z,97534.31
2023-07-30T09:26:47.173Z,97532.22
2023-07-30T09:29:14.778Z,97526.81
2023-07-30T09:31:46.990Z,97539.59
2023-07-30T09:34:16.752Z,97544.19
2023-07-30T09:36:44.406Z,97548.22
2023-07-30T09:39:17.460Z,97546.66
2023-07-30T09:41:44.267Z,97553.06
2023-07-30T09:44:11.362Z,97554.16
2023-07-30T09:46:45.222Z,97564.59
2023-07-30T09:49:12.160Z,97563.44
2023-07-30T09:51:40.229Z,97566.53
2023-07-30T09:54:07.822Z,97570.72
2023-07-30T09:56:35.459Z,97575.81
2023-07-30T09:59:02.143Z,97586.16
2023-07-30T10:01:29.026Z,97581.34
2023-07-30T10:03:57.380Z,97583.06
2023-07-30T10:06:28.735Z,97589.97
2023-07-30T10:08:56.245Z,97595.69
2023-07-30T10:11:23.395Z,97579.47
2023-07-30T10:13:50.013Z,97590.72
2023-07-30T10:16:17.090Z,97581.41
2023-07-30T10:18:44.515Z,97576.41
2023-07-30T10:21:12.216Z,97582.09
2023-07-30T10:23:48.393Z,97586.47
2023-07-30T10:26:15.321Z,97586.53
2023-07-30T10:28:45.160Z,97581.91
2023-07-30T10:31:14.549Z,97590.50
2023-07-30T10:33:48.635Z,97587.75
2023-07-30T10:36:15.600Z,97587.00
2023-07-30T10:38:43.471Z,97585.59
2023-07-30T10:41:11.804Z,97586.41
2023-07-30T10:43:42.579Z,97584.25
2023-07-30T10:46:10.746Z,97581.25
2023-07-30T10:48:39.152Z,97584.00
2023-07-30T10:51:07.051Z,97588.31
2023-07-30T10:53:33.895Z,97586.84
2023-07-30T10:56:02.838Z,97583.03
2023-07-30T10:58:33.338Z,97593.50
2023-07-30T11:01:00.516Z,97585.94
2023-07-30T11:03:30.493Z,97579.53
2023-07-30T11:05:57.622Z,97582.38
2023-07-30T11:08:40.797Z,97578.34
2023-07-30T11:11:08.558Z,97570.50
2023-07-30T11:13:39.321Z,97584.59
2023-07-30T11:16:09.694Z,97578.69
2023-07-30T11:18:37.423Z,97575.09
2023-07-30T11:21:07.930Z,97581.19
2023-07-30T11:23:35.631Z,97587.63
2023-07-30T11:26:03.511Z,97582.59
2023-07-30T11:28:33.752Z,97586.59
2023-07-30T11:31:08.886Z,97578.78
2023-07-30T11:33:43.383Z,97575.69
2023-07-30T11:36:14.543Z,97569.00
2023-07-30T11:38:41.616Z,97568.72
2023-07-30T11:41:10.805Z,97582.91
2023-07-30T11:43:42.494Z,97571.16
2023-07-30T11:46:10.475Z,97567.59
2023-07-30T11:48:37.950Z,97567.22
2023-07-30T11:51:05.037Z,97570.78
2023-07-30T11:53:52.700Z,97575.91
2023-07-30T11:56:20.854Z,97578.34
2023-07-30T11:58:48.997Z,97580.38
2023-07-30T12:01:19.621Z,97584.31
2023-07-30T12:03:46.558Z,97580.25
2023-07-30T12:06:13.822Z,97591.66
2023-07-30T12:08:41.206Z,97587.63
2023-07-30T12:11:09.122Z,97578.88
2023-07-30T12:13:43.212Z,97590.31
2023-07-30T12:16:10.436Z,97597.41
2023-07-30T12:18:37.207Z,97592.66
2023-07-30T12:21:06.060Z,97594.59
2023-07-30T12:23:33.220Z,97594.25
2023-07-30T12:26:00.293Z,97589.16
2023-07-30T12:28:27.435Z,97539.22
2023-07-30T12:30:54.480Z,97587.97
2023-07-30T12:33:21.290Z,97593.81
2023-07-30T12:35:48.016Z,97591.81
2023-07-30T12:38:16.139Z,97601.22
2023-07-30T12:40:43.108Z,97592.81
2023-07-30T12:43:10.334Z,97588.31
2023-07-30T12:45:37.377Z,97601.00
2023-07-30T12:48:04.619Z,97614.63
2023-07-30T12:50:31.701Z,97621.88
2023-07-30T12:52:58.718Z,97614.06
2023-07-30T12:55:25.659Z,97613.59
2023-07-30T12:57:52.735Z,97617.03
2023-07-30T13:00:19.626Z,97580.41
2023-07-30T13:02:46.593Z,97618.91
2023-07-30T13:05:14.791Z,97624.09
2023-07-30T13:07:41.374Z,97630.09
2023-07-30T13:10:08.330Z,97627.81
2023-07-30T13:12:34.846Z,97636.09
2023-07-30T13:15:01.488Z,97635.22
2023-07-30T13:17:28.150Z,97628.13
2023-07-30T13:19:54.732Z,97628.03
2023-07-30T13:22:21.233Z,97621.34
2023-07-30T13:24:47.773Z,97635.22
2023-07-30T13:27:14.368Z,97634.75
2023-07-30T13:29:41.123Z,97636.31
2023-07-30T13:32:07.797Z,97632.38
2023-07-30T13:34:34.292Z,97624.63
2023-07-30T13:37:00.763Z,97628.25
2023-07-30T13:39:27.274Z,97633.34
2023-07-30T13:41:53.757Z,97633.03
2023-07-30T13:44:20.815Z,97631.16
2023-07-30T13:46:47.519Z,97631.16
2023-07-30T13:49:14.038Z,97641.00
2023-07-30T13:51:40.862Z,97635.03
2023-07-30T13:54:09.042Z,97627.16
2023-07-30T13:56:35.716Z,97635.03
2023-07-30T13:59:02.232Z,97638.97
2023-07-30T14:01:29.388Z,97635.81
2023-07-30T14:03:55.844Z,97633.06
2023-07-30T14:06:22.305Z,97644.91
2023-07-30T14:08:48.876Z,97638.25
2023-07-30T14:11:15.829Z,97651.22
2023-07-30T14:13:42.335Z,97644.56
2023-07-30T14:16:09.679Z,97647.69
2023-07-30T14:18:36.396Z,97649.25
2023-07-30T14:21:03.932Z,97633.13
2023-07-30T14:23:30.652Z,97643.75
2023-07-30T14:25:57.172Z,97645.31
2023-07-30T14:28:23.935Z,97646.09
2023-07-30T14:30:50.455Z,97657.13
2023-07-30T14:33:17.019Z,97666.94
2023-07-30T14:35:43.631Z,97666.56
2023-07-30T14:38:10.920Z,97666.56
2023-07-30T14:40:37.477Z,97667.78
2023-07-30T14:43:04.151Z,97673.25
2023-07-30T14:45:30.641Z,97674.44
2023-07-30T14:47:58.254Z,97668.16
2023-07-30T14:50:25.112Z,97672.09
2023-07-30T14:52:51.629Z,97675.25
2023-07-30T14:55:18.223Z,97673.28
2023-07-30T14:57:44.742Z,97677.59
2023-07-30T15:00:14.110Z,97684.72
2023-07-30T15:02:41.654Z,97689.41
2023-07-30T15:05:08.723Z,97689.41
2023-07-30T15:07:35.279Z,97693.34
2023-07-30T15:10:02.048Z,97685.50
2023-07-30T15:12:30.078Z,97688.66
2023-07-30T15:14:58.810Z,97687.84
2023-07-30T15:17:25.454Z,97690.59
2023-07-30T15:19:53.894Z,97696.13
2023-07-30T15:22:20.469Z,97702.78
2023-07-30T15:24:46.968Z,97706.31
2023-07-30T15:27:13.563Z,97705.16
2023-07-30T15:29:40.070Z,97711.44
2023-07-30T15:32:06.646Z,97710.22
2023-07-30T15:34:33.119Z,97710.22
2023-07-30T15:37:01.384Z,97702.34
2023-07-30T15:39:27.941Z,97708.28
2023-07-30T15:41:54.434Z,97707.88
2023-07-30T15:44:20.977Z,97708.66
2023-07-30T15:46:47.700Z,97701.97
2023-07-30T15:49:14.329Z,97708.28
2023-07-30T15:51:40.878Z,97707.47
2023-07-30T15:54:07.583Z,97704.75
2023-07-30T15:56:34.016Z,97709.03
2023-07-30T15:59:01.111Z,97707.41
2023-07-30T16:01:27.755Z,97705.00
2023-07-30T16:03:54.333Z,97712.06
2023-07-30T16:06:23.288Z,97715.53
2023-07-30T16:08:49.896Z,97704.09
2023-07-30T16:11:16.572Z,97707.63
2023-07-30T16:13:43.177Z,97664.59
2023-07-30T16:16:13.620Z,97711.09
2023-07-30T16:18:42.532Z,97709.91
2023-07-30T16:21:09.305Z,97711.88
2023-07-30T16:23:35.834Z,97705.16
2023-07-30T16:26:02.436Z,97700.78
2023-07-30T16:28:29.045Z,97711.00
2023-07-30T16:30:55.659Z,97704.69
2023-07-30T16:33:22.152Z,97711.72
2023-07-30T16:35:49.015Z,97718.03
2023-07-30T16:38:18.971Z,97723.53
2023-07-30T16:40:45.424Z,97718.00
2023-07-30T16:43:12.463Z,97728.16
2023-07-30T16:45:38.957Z,97721.75
2023-07-30T16:48:05.554Z,97728.00
2023-07-30T16:50:32.127Z,97737.41
2023-07-30T16:52:58.766Z,97743.66
2023-07-30T16:55:25.225Z,97729.38
2023-07-30T16:57:51.686Z,97739.53
2023-07-30T17:00:18.312Z,97747.78
2023-07-30T17:02:44.912Z,97745.78
2023-07-30T17:05:11.693Z,97748.09
2023-07-30T17:07:38.201Z,97744.97
2023-07-30T17:10:04.861Z,97756.72
2023-07-30T17:12:31.365Z,97752.44
2023-07-30T17:14:57.952Z,97750.81
2023-07-30T17:17:24.514Z,97754.25
2023-07-30T17:19:52.155Z,97763.13
2023-07-30T17:22:18.742Z,97759.63
2023-07-30T17:24:45.261Z,97764.38
2023-07-30T17:27:15.001Z,97763.53
2023-07-30T17:29:41.530Z,97765.34
2023-07-30T17:32:08.301Z,97753.53
2023-07-30T17:34:34.908Z,97751.47
2023-07-30T17:37:01.449Z,97759.19
2023-07-30T17:39:27.907Z,97761.56
2023-07-30T17:41:54.639Z,97765.50
2023-07-30T17:44:21.173Z,97762.78
2023-07-30T17:46:47.863Z,97768.63
2023-07-30T17:49:14.337Z,97774.47
2023-07-30T17:51:40.771Z,97768.38
2023-07-30T17:54:07.269Z,97773.31
2023-07-30T17:56:33.707Z,97765.81
2023-07-30T17:59:00.323Z,97771.22
2023-07-30T18:01:26.793Z,97767.94
2023-07-30T18:03:53.312Z,97770.06
2023-07-30T18:06:19.865Z,97720.78
2023-07-30T18:08:46.471Z,97775.34
2023-07-30T18:11:12.987Z,97771.94
2023-07-30T18:13:39.501Z,97771.56
2023-07-30T18:16:06.165Z,97782.09
2023-07-30T18:18:32.849Z,97778.50
2023-07-30T18:20:59.391Z,97772.88
2023-07-30T18:23:25.967Z,97780.66
2023-07-30T18:25:52.939Z,97785.34
2023-07-30T18:28:19.489Z,97797.03
2023-07-30T18:30:45.982Z,97797.84
2023-07-30T18:33:12.588Z,97804.41
2023-07-30T18:35:39.643Z,97800.31
2023-07-30T18:38:06.130Z,97800.31
2023-07-30T18:40:35.230Z,97800.38
2023-07-30T18:43:01.710Z,97797.16
2023-07-30T18:45:31.502Z,97800.75
2023-07-30T18:47:58.124Z,97793.34
2023-07-30T18:50:24.648Z,97790.63
2023-07-30T18:52:51.167Z,97796.88
2023-07-30T18:55:17.707Z,97796.88
2023-07-30T18:57:44.252Z,97790.34
2023-07-30T19:00:11.722Z,97791.50
2023-07-30T19:02:38.322Z,97784.44
2023-07-30T19:05:05.070Z,97790.72
2023-07-30T19:07:31.579Z,97792.28
2023-07-30T19:09:58.663Z,97800.16
2023-07-30T19:12:25.257Z,97803.69
2023-07-30T19:14:51.821Z,97809.97
2023-07-30T19:17:22.473Z,97803.69
2023-07-30T19:19:49.221Z,97809.91
2023-07-30T19:22:18.141Z,97809.09
2023-07-30T19:24:46.325Z,97811.03
2023-07-30T19:27:12.932Z,97813.31
2023-07-30T19:29:39.535Z,97811.66
2023-07-30T19:32:06.411Z,97818.56
2023-07-30T19:34:33.155Z,97817.69
2023-07-30T19:36:59.790Z,97820.63
2023-07-30T19:39:26.394Z,97833.06
2023-07-30T19:41:53.177Z,97829.03
2023-07-30T19:44:19.693Z,97830.63
2023-07-30T19:46:46.199Z,97829.75
2023-07-30T19:49:12.876Z,97828.59
2023-07-30T19:51:39.962Z,97829.47
2023-07-30T19:54:06.596Z,97830.63
2023-07-30T19:56:33.135Z,97828.94
2023-07-30T19:58:59.688Z,97822.69
2023-07-30T20:01:26.254Z,97824.28
2023-07-30T20:03:52.812Z,97823.91
2023-07-30T20:06:19.944Z,97827.38
2023-07-30T20:08:46.673Z,97824.56
2023-07-30T20:11:13.301Z,97823.34
2023-07-30T20:13:39.838Z,97828.75
2023-07-30T20:16:15.436Z,97829.47
2023-07-30T20:18:42.167Z,97831.00
2023-07-30T20:21:09.436Z,97833.66
2023-07-30T20:23:36.298Z,97836.31
2023-07-30T20:26:04.369Z,97832.69
2023-07-30T20:28:30.880Z,97834.66
2023-07-30T20:30:57.592Z,97829.44
2023-07-30T20:33:24.061Z,97827.88
2023-07-30T20:35:50.749Z,97832.09
2023-07-30T20:38:17.289Z,97833.63
2023-07-30T20:40:43.803Z,97825.00
2023-07-30T20:43:10.281Z,97830.41
2023-07-30T20:45:37.042Z,97834.19
2023-07-30T20:48:03.851Z,97835.69
2023-07-30T20:50:30.475Z,97832.47
2023-07-30T20:52:56.963Z,97831.53
2023-07-30T20:55:23.474Z,97833.28
2023-07-30T20:57:49.941Z,97830.41
2023-07-30T21:00:16.516Z,97827.94
2023-07-30T21:02:43.190Z,97829.41
2023-07-30T21:05:09.977Z,97829.66
2023-07-30T21:07:36.648Z,97824.00
2023-07-30T21:10:03.434Z,97822.69
2023-07-30T21:12:30.131Z,97825.69
2023-07-30T21:14:56.648Z,97827.09
2023-07-30T21:17:23.217Z,97826.94
2023-07-30T21:19:50.256Z,97822.00
2023-07-30T21:22:16.872Z,97829.84
2023-07-30T21:24:43.558Z,97832.03
2023-07-30T21:27:10.292Z,97832.75
2023-07-30T21:29:36.998Z,97834.69
2023-07-30T21:32:03.773Z,97834.88
2023-07-30T21:34:30.466Z,97837.16
2023-07-30T21:36:56.983Z,97834.34
2023-07-30T21:39:23.608Z,97833.81
2023-07-30T21:41:50.183Z,97831.59
2023-07-30T21:44:16.736Z,97833.53
2023-07-30T21:46:43.675Z,97828.16
2023-07-30T21:49:10.437Z,97831.31
2023-07-30T21:51:36.962Z,97826.31
2023-07-30T21:54:03.532Z,97827.09
2023-07-30T21:56:30.122Z,97826.75
2023-07-30T21:58:56.632Z,97838.38
2023-07-30T22:01:23.240Z,97830.38
2023-07-30T22:03:49.767Z,97828.00
2023-07-30T22:06:16.339Z,97829.56
2023-07-30T22:08:42.763Z,97830.28
2023-07-30T22:11:09.265Z,97835.72
2023-07-30T22:13:35.743Z,97834.81
2023-07-30T22:16:02.226Z,97839.81
2023-07-30T22:18:28.718Z,97842.09
2023-07-30T22:20:55.261Z,97829.88
2023-07-30T22:23:21.726Z,97829.88
2023-07-30T22:25:48.292Z,97825.91
2023-07-30T22:28:14.899Z,97827.63
2023-07-30T22:30:41.656Z,97815.72
2023-07-30T22:33:08.727Z,97813.69
2023-07-30T22:35:35.476Z,97822.22
2023-07-30T22:38:02.038Z,97826.09
2023-07-30T22:40:28.992Z,97829.97
2023-07-30T22:42:55.578Z,97827.94
2023-07-30T22:45:22.091Z,97836.84
2023-07-30T22:47:49.068Z,97829.00
2023-07-30T22:50:15.630Z,97828.19
2023-07-30T22:52:42.119Z,97823.78
2023-07-30T22:55:08.698Z,97828.31
2023-07-30T22:57:35.851Z,97832.09
2023-07-30T23:00:02.383Z,97825.31
2023-07-30T23:02:29.138Z,97829.50
2023-07-30T23:04:55.724Z,97832.59
2023-07-30T23:07:22.194Z,97816.59
2023-07-30T23:09:48.703Z,97819.97
2023-07-30T23:12:15.223Z,97810.44
2023-07-30T23:14:41.740Z,97816.94
2023-07-30T23:17:08.299Z,97819.69
2023-07-30T23:19:34.803Z,97823.28
2023-07-30T23:22:01.394Z,97826.38
2023-07-30T23:24:27.943Z,97820.59
2023-07-30T23:26:54.468Z,97822.53
2023-07-30T23:29:21.016Z,97821.03
2023-07-30T23:31:47.515Z,97821.03
2023-07-30T23:34:14.062Z,97818.09
2023-07-30T23:36:40.861Z,97812.66
2023-07-30T23:39:07.695Z,97812.22
2023-07-30T23:41:34.185Z,97813.38
2023-07-30T23:44:00.722Z,97802.22
2023-07-30T23:46:27.287Z,97813.81
2023-07-30T23:48:53.806Z,97799.50
2023-07-30T23:51:20.283Z,97801.28
2023-07-30T23:53:46.790Z,97797.59
2023-07-30T23:56:13.240Z,97789.66
2023-07-30T23:58:39.754Z,97791.34
